Time;durP1;ratioP1;P1;durP2;ratioP2;P2;SDS_P1;SDS_P2;PMS_P1;PMS_P2;Temp;Humidity;BMP_temperature;BMP_pressure;BME280_temperature;BME280_humidity;BME280_pressure;Samples;Min_cycle;Max_cycle;Signal;HPM_P1;HPM_P2
2023/03/09 00:01:36;;;;;;;16.33;9.07;;;;;;;;;;5126832;27;20088;-68
2023/03/09 00:04:01;;;;;;;15.25;8.77;;;;;;;;;;5110641;27;20031;-69
2023/03/09 00:06:26;;;;;;;18.90;8.97;;;;;;;;;;5126284;27;20381;-68
2023/03/09 00:08:52;;;;;;;18.97;9.20;;;;;;;;;;5126784;27;20283;-68
2023/03/09 00:11:17;;;;;;;18.73;9.07;;;;;;;;;;5128449;27;20629;-69
2023/03/09 00:13:43;;;;;;;18.73;9.30;;;;;;;;;;5126257;27;20114;-68
2023/03/09 00:16:14;;;;;;;16.90;8.82;;;;;;;;;;5126147;27;20035;-68
2023/03/09 00:18:39;;;;;;;16.45;8.75;;;;;;;;;;5110235;27;20027;-68
2023/03/09 00:21:05;;;;;;;18.88;9.77;;;;;;;;;;5126405;27;20072;-68
2023/03/09 00:23:30;;;;;;;16.98;8.52;;;;;;;;;;5108544;27;20038;-68
2023/03/09 00:26:00;;;;;;;17.70;9.43;;;;;;;;;;5107219;27;20039;-68
2023/03/09 00:28:25;;;;;;;15.20;8.35;;;;;;;;;;5126758;27;20117;-68
2023/03/09 00:30:51;;;;;;;15.93;8.80;;;;;;;;;;5126295;27;20524;-68
2023/03/09 00:33:16;;;;;;;14.53;7.67;;;;;;;;;;5126505;27;20286;-68
2023/03/09 00:35:41;;;;;;;18.77;8.50;;;;;;;;;;5126198;27;20046;-68
2023/03/09 00:38:06;;;;;;;18.17;8.43;;;;;;;;;;5128064;27;20314;-69
2023/03/09 00:40:32;;;;;;;16.50;7.90;;;;;;;;;;5125311;27;20287;-68
2023/03/09 00:42:57;;;;;;;15.85;7.78;;;;;;;;;;5108742;27;20080;-68
2023/03/09 00:45:23;;;;;;;15.40;7.67;;;;;;;;;;5126569;27;20023;-68
2023/03/09 00:47:49;;;;;;;15.23;7.72;;;;;;;;;;5127962;27;20418;-68
2023/03/09 00:50:14;;;;;;;17.08;7.05;;;;;;;10.18;nan;99380.34;5126412;27;20102;-68
2023/03/09 00:52:39;;;;;;;14.07;7.13;;;;;;;;;;5129705;27;20027;-68
2023/03/09 00:55:05;;;;;;;13.70;6.70;;;;;;;;;;5127412;27;20628;-68
2023/03/09 00:57:30;;;;;;;12.05;6.55;;;;;;;;;;5111454;27;20287;-68
2023/03/09 00:59:56;;;;;;;12.10;6.87;;;;;;;;;;5108990;27;20745;-68
2023/03/09 01:02:22;;;;;;;14.65;7.43;;;;;;;;;;5127827;27;20034;-68
2023/03/09 01:04:47;;;;;;;12.85;6.72;;;;;;;;;;5122281;27;20027;-68
2023/03/09 01:07:13;;;;;;;13.13;6.20;;;;;;;;;;5127842;27;20457;-68
2023/03/09 01:09:38;;;;;;;18.75;6.78;;;;;;;;;;5105243;27;20027;-68
2023/03/09 01:12:05;;;;;;;13.45;6.57;;;;;;;10.18;nan;99356.69;5126052;27;20618;-70
2023/03/09 01:14:31;;;;;;;15.15;6.20;;;;;;;;;;5126260;27;20027;-70
2023/03/09 01:16:56;;;;;;;11.40;6.10;;;;;;;;;;5109519;27;20050;-70
2023/03/09 01:19:21;;;;;;;11.83;6.10;;;;;;;;;;5125366;27;20027;-70
2023/03/09 01:21:46;;;;;;;10.63;6.20;;;;;;;;;;5126180;27;20340;-71
2023/03/09 01:24:12;;;;;;;13.10;5.90;;;;;;;;;;5126843;27;20035;-70
2023/03/09 01:26:37;;;;;;;12.87;6.67;;;;;;;;;;5127607;27;20038;-71
2023/03/09 01:29:02;;;;;;;13.15;6.82;;;;;;;;;;5124820;27;20035;-71
2023/03/09 01:31:27;;;;;;;13.33;6.73;;;;;;;;;;5109759;27;20388;-70
2023/03/09 01:33:53;;;;;;;10.15;6.18;;;;;;;;;;5111479;27;20320;-71
2023/03/09 01:36:18;;;;;;;10.57;6.38;;;;;;;;;;5126803;27;20027;-71
2023/03/09 01:38:44;;;;;;;10.57;5.72;;;;;;;;;;5122964;27;20035;-70
2023/03/09 01:41:11;;;;;;;12.75;6.63;;;;;;;;;;5104402;27;20023;-70
2023/03/09 01:43:41;;;;;;;11.90;5.65;;;;;;;;;;5126503;27;20071;-71
2023/03/09 01:46:24;;;;;;;12.48;5.80;;;;;;;;;;5126166;27;20027;-70
2023/03/09 01:48:55;;;;;;;12.63;5.97;;;;;;;;;;5126715;27;20031;-71
2023/03/09 01:51:23;;;;;;;10.88;6.28;;;;;;;;;;5107151;27;20031;-69
2023/03/09 01:53:50;;;;;;;9.80;5.43;;;;;;;;;;5127080;27;20080;-71
2023/03/09 01:56:17;;;;;;;15.50;6.03;;;;;;;;;;5124554;27;20473;-71
2023/03/09 01:58:42;;;;;;;14.90;5.35;;;;;;;;;;5125843;27;20493;-71
2023/03/09 02:01:09;;;;;;;12.75;6.25;;;;;;;;;;5127005;27;20018;-71
2023/03/09 02:03:36;;;;;;;9.60;5.82;;;;;;;;;;5107369;27;20039;-70
2023/03/09 02:06:04;;;;;;;12.90;6.05;;;;;;;;;;5107669;27;20397;-71
2023/03/09 02:08:30;;;;;;;10.18;5.60;;;;;;;;;;5124796;27;20034;-71
2023/03/09 02:10:58;;;;;;;9.43;5.53;;;;;;;10.26;nan;99291.50;5123109;27;20023;-70
2023/03/09 02:13:25;;;;;;;10.40;5.63;;;;;;;;;;5125687;27;20019;-71
2023/03/09 02:15:51;;;;;;;12.75;5.13;;;;;;;;;;5126048;27;20058;-70
2023/03/09 02:18:16;;;;;;;10.50;5.97;;;;;;;;;;5127314;27;20030;-71
2023/03/09 02:20:49;;;;;;;11.50;6.18;;;;;;;;;;5124955;27;20405;-71
2023/03/09 02:23:22;;;;;;;10.13;5.72;;;;;;;;;;5127033;27;20034;-71
2023/03/09 02:25:51;;;;;;;10.65;5.63;;;;;;;;;;5106066;28;20035;-71
2023/03/09 02:28:17;;;;;;;9.82;5.60;;;;;;;;;;5109663;28;20023;-71
2023/03/09 02:30:45;;;;;;;10.40;5.55;;;;;;;;;;5124610;28;20036;-71
2023/03/09 02:33:12;;;;;;;9.57;5.15;;;;;;;;;;5126760;27;20042;-71
2023/03/09 02:35:37;;;;;;;8.88;4.97;;;;;;;;;;5108792;28;20034;-70
2023/03/09 02:38:03;;;;;;;12.02;5.72;;;;;;;;;;5124931;28;20031;-70
2023/03/09 02:40:31;;;;;;;11.25;5.32;;;;;;;;;;5120096;28;20103;-71
2023/03/09 02:42:57;;;;;;;11.93;5.72;;;;;;;;;;5124579;28;20382;-71
2023/03/09 02:45:23;;;;;;;7.65;5.13;;;;;;;;;;5126855;28;20027;-70
2023/03/09 02:47:48;;;;;;;7.95;5.28;;;;;;;;;;5127032;28;20018;-70
2023/03/09 02:50:15;;;;;;;7.38;5.13;;;;;;;;;;5108185;28;20430;-71
2023/03/09 02:52:40;;;;;;;8.52;5.03;;;;;;;;;;5127179;28;20023;-71
2023/03/09 02:55:06;;;;;;;10.07;5.55;;;;;;;;;;5126974;27;20030;-71
2023/03/09 02:57:32;;;;;;;8.88;5.40;;;;;;;;;;5123822;28;20030;-71
2023/03/09 02:59:57;;;;;;;9.98;5.38;;;;;;;;;;5127072;28;20027;-71
2023/03/09 03:02:22;;;;;;;10.87;5.37;;;;;;;;;;5127255;28;20026;-70
2023/03/09 03:04:48;;;;;;;11.33;5.80;;;;;;;;;;5126790;28;20682;-71
2023/03/09 03:07:13;;;;;;;8.50;5.30;;;;;;;;;;5125294;28;20027;-70
2023/03/09 03:09:38;;;;;;;8.93;5.60;;;;;;;;;;5123741;28;20054;-72
2023/03/09 03:12:03;;;;;;;9.27;5.77;;;;;;;;;;5124377;28;20030;-71
2023/03/09 03:14:29;;;;;;;10.23;5.40;;;;;;;;;;5124505;27;21395;-71
2023/03/09 03:16:54;;;;;;;11.37;5.53;;;;;;;;;;5129994;27;20425;-71
2023/03/09 03:19:20;;;;;;;9.27;5.95;;;;;;;;;;5130588;27;20044;-71
2023/03/09 03:21:45;;;;;;;8.77;5.45;;;;;;;;;;5128201;27;20044;-71
2023/03/09 03:24:10;;;;;;;10.77;5.60;;;;;;;;;;5130218;27;20106;-71
2023/03/09 03:26:36;;;;;;;10.85;5.80;;;;;;;;;;5130289;27;20319;-70
2023/03/09 03:29:01;;;;;;;10.43;5.65;;;;;;;;;;5110066;27;20058;-70
2023/03/09 03:31:26;;;;;;;11.25;5.55;;;;;;;;;;5127160;27;20033;-71
2023/03/09 03:33:51;;;;;;;12.68;5.55;;;;;;;;;;5130436;27;20481;-70
2023/03/09 03:36:17;;;;;;;9.63;4.73;;;;;;;;;;5129561;27;20035;-71
2023/03/09 03:38:42;;;;;;;10.07;5.73;;;;;;;;;;5130013;27;20307;-71
2023/03/09 03:41:07;;;;;;;12.83;5.47;;;;;;;;;;5129524;27;20084;-70
2023/03/09 03:43:32;;;;;;;10.60;5.80;;;;;;;;;;5127970;27;20031;-71
2023/03/09 03:45:58;;;;;;;9.63;5.22;;;;;;;;;;5128737;27;20035;-71
2023/03/09 03:48:23;;;;;;;9.57;5.00;;;;;;;;;;5126096;27;20440;-71
2023/03/09 03:50:48;;;;;;;12.35;5.63;;;;;;;;;;5129471;27;20275;-70
2023/03/09 03:53:14;;;;;;;8.80;5.20;;;;;;;;;;5110996;27;20540;-71
2023/03/09 03:55:39;;;;;;;9.10;4.60;;;;;;;;;;5129653;27;20313;-71
2023/03/09 03:58:04;;;;;;;9.95;5.22;;;;;;;;;;5125017;27;20032;-71
2023/03/09 04:00:29;;;;;;;9.07;4.57;;;;;;;;;;5111611;27;20066;-70
2023/03/09 04:02:55;;;;;;;8.53;5.17;;;;;;;;;;5126956;27;20027;-71
2023/03/09 04:05:20;;;;;;;7.97;4.67;;;;;;;;;;5130103;27;20027;-68
2023/03/09 04:07:46;;;;;;;9.20;4.43;;;;;;;;;;5127061;27;20271;-68
2023/03/09 04:10:12;;;;;;;6.68;4.38;;;;;;;;;;5128468;27;20031;-68
2023/03/09 04:12:37;;;;;;;12.05;4.97;;;;;;;;;;5107887;27;20489;-68
2023/03/09 04:15:02;;;;;;;8.77;4.63;;;;;;;;;;5130479;27;20039;-68
2023/03/09 04:17:28;;;;;;;8.32;4.38;;;;;;;;;;5128126;27;20355;-68
2023/03/09 04:19:53;;;;;;;9.50;4.57;;;;;;;;;;5108174;27;20435;-68
2023/03/09 04:22:18;;;;;;;9.17;4.97;;;;;;;;;;5125974;27;20275;-68
2023/03/09 04:24:43;;;;;;;8.97;5.00;;;;;;;;;;5129001;27;20031;-68
2023/03/09 04:27:08;;;;;;;8.57;4.67;;;;;;;;;;5110053;27;20020;-68
2023/03/09 04:29:34;;;;;;;9.07;4.50;;;;;;;;;;5129113;27;20038;-67
2023/03/09 04:31:59;;;;;;;8.85;3.85;;;;;;;;;;5127005;27;20283;-68
2023/03/09 04:34:24;;;;;;;10.15;3.88;;;;;;;;;;5125303;27;20038;-67
2023/03/09 04:36:50;;;;;;;7.47;4.03;;;;;;;;;;5126520;27;20023;-68
2023/03/09 04:39:15;;;;;;;8.27;4.32;;;;;;;;;;5106565;27;20366;-68
2023/03/09 04:41:40;;;;;;;7.43;3.97;;;;;;;;;;5127391;27;20110;-68
2023/03/09 04:44:05;;;;;;;8.53;4.23;;;;;;;;;;5124887;27;20051;-68
2023/03/09 04:46:31;;;;;;;7.15;4.22;;;;;;;;;;5129356;27;20609;-68
2023/03/09 04:48:56;;;;;;;7.93;4.20;;;;;;;;;;5108803;27;20019;-68
2023/03/09 04:51:21;;;;;;;9.90;4.37;;;;;;;;;;5128726;27;20854;-69
2023/03/09 04:53:47;;;;;;;9.20;4.05;;;;;;;;;;5128718;27;20108;-70
2023/03/09 04:56:12;;;;;;;7.05;3.72;;;;;;;;;;5125714;27;20042;-69
2023/03/09 04:58:37;;;;;;;8.63;4.17;;;;;;;;;;5127171;27;20456;-69
2023/03/09 05:01:02;;;;;;;8.73;4.00;;;;;;;;;;5104110;27;20331;-68
2023/03/09 05:03:28;;;;;;;5.93;3.67;;;;;;;;;;5127090;27;20035;-68
2023/03/09 05:05:53;;;;;;;11.05;3.90;;;;;;;;;;5126839;27;20037;-69
2023/03/09 05:08:19;;;;;;;10.60;4.20;;;;;;;;;;5126763;27;20027;-69
2023/03/09 05:10:44;;;;;;;8.23;3.50;;;;;;;;;;5109540;27;20576;-68
2023/03/09 05:13:09;;;;;;;6.72;3.53;;;;;;;;;;5104477;27;20048;-69
2023/03/09 05:15:37;;;;;;;8.98;3.50;;;;;;;;;;5127604;27;20601;-73
2023/03/09 05:18:02;;;;;;;4.70;3.25;;;;;;;;;;5128397;27;20392;-73
2023/03/09 05:20:28;;;;;;;5.97;3.00;;;;;;;;;;5110463;27;20027;-73
2023/03/09 05:22:54;;;;;;;6.13;3.40;;;;;;;;;;5126061;27;20031;-73
2023/03/09 05:25:19;;;;;;;6.95;3.20;;;;;;;;;;5111716;27;20027;-73
2023/03/09 05:27:44;;;;;;;7.10;3.10;;;;;;;;;;5109131;27;20075;-73
2023/03/09 05:30:10;;;;;;;8.53;3.23;;;;;;;;;;5128674;27;20271;-73
2023/03/09 05:32:35;;;;;;;6.63;3.17;;;;;;;;;;5107903;27;20087;-73
2023/03/09 05:35:00;;;;;;;6.05;3.20;;;;;;;;;;5102574;27;20031;-73
2023/03/09 05:37:26;;;;;;;5.90;3.30;;;;;;;;;;5123042;27;20015;-73
2023/03/09 05:39:51;;;;;;;5.87;3.30;;;;;;;;;;5126884;27;20047;-72
2023/03/09 05:42:16;;;;;;;5.73;3.00;;;;;;;;;;5126532;27;20030;-72
2023/03/09 05:44:41;;;;;;;4.47;2.90;;;;;;;;;;5126876;27;20363;-73
2023/03/09 05:47:07;;;;;;;4.97;2.80;;;;;;;;;;5127738;27;20481;-74
2023/03/09 05:49:32;;;;;;;6.40;3.00;;;;;;;;;;5112417;27;20030;-74
2023/03/09 05:51:58;;;;;;;7.43;2.80;;;;;;;;;;5127277;27;20083;-74
2023/03/09 05:54:23;;;;;;;6.53;2.85;;;;;;;;;;5110887;27;20279;-74
2023/03/09 05:56:52;;;;;;;5.90;2.70;;;;;;;;;;5110410;27;20027;-73
2023/03/09 05:59:17;;;;;;;7.82;2.85;;;;;;;;;;5125835;27;20038;-74
2023/03/09 06:01:42;;;;;;;4.60;3.30;;;;;;;;;;5108382;27;20023;-73
2023/03/09 06:04:07;;;;;;;4.40;2.80;;;;;;;;;;5127641;27;20330;-73
2023/03/09 06:06:33;;;;;;;6.57;2.83;;;;;;;;;;5120623;27;20742;-73
2023/03/09 06:08:58;;;;;;;4.60;2.58;;;;;;;;;;5108687;27;20281;-73
2023/03/09 06:11:23;;;;;;;7.27;2.93;;;;;;;;;;5125435;27;20461;-73
2023/03/09 06:13:52;;;;;;;7.53;2.92;;;;;;;;;;5122791;27;20114;-73
2023/03/09 06:16:17;;;;;;;6.47;3.43;;;;;;;;;;5126743;27;20043;-73
2023/03/09 06:18:43;;;;;;;5.57;3.20;;;;;;;;;;5126859;27;20640;-73
2023/03/09 06:21:09;;;;;;;6.85;3.10;;;;;;;;;;5125652;27;20267;-73
2023/03/09 06:23:37;;;;;;;11.88;3.33;;;;;;;;;;5125110;27;20027;-73
2023/03/09 06:26:09;;;;;;;5.80;3.05;;;;;;;10.33;nan;99278.97;5109989;28;20547;-73
2023/03/09 06:28:34;;;;;;;6.95;2.95;;;;;;;;;;5125761;28;20038;-74
2023/03/09 06:31:04;;;;;;;6.78;3.17;;;;;;;;;;5127911;28;20392;-73
2023/03/09 06:33:30;;;;;;;6.50;2.88;;;;;;;;;;5124813;28;20026;-73
2023/03/09 06:35:55;;;;;;;4.17;2.60;;;;;;;;;;5108583;28;20027;-73
2023/03/09 06:38:22;;;;;;;3.90;2.60;;;;;;;;;;5105598;28;20267;-74
2023/03/09 06:40:48;;;;;;;4.13;2.60;;;;;;;;;;5126559;28;20031;-73
2023/03/09 06:43:14;;;;;;;4.15;2.53;;;;;;;;;;5104460;28;20045;-73
2023/03/09 06:45:43;;;;;;;4.30;2.80;;;;;;;;;;5125648;28;20079;-74
2023/03/09 06:48:09;;;;;;;4.70;2.90;;;;;;;;;;5125934;27;20708;-73
2023/03/09 06:50:34;;;;;;;5.93;2.85;;;;;;;;;;5114054;27;20062;-74
2023/03/09 06:53:00;;;;;;;6.33;2.67;;;;;;;;;;5131534;27;20075;-73
2023/03/09 06:55:25;;;;;;;4.72;2.67;;;;;;;;;;5112640;27;20388;-72
2023/03/09 06:57:50;;;;;;;4.40;2.57;;;;;;;;;;5131030;27;20430;-73
2023/03/09 07:00:16;;;;;;;6.13;2.90;;;;;;;;;;5131032;27;20271;-73
2023/03/09 07:02:41;;;;;;;6.53;3.13;;;;;;;;;;5126485;27;20034;-72
2023/03/09 07:05:07;;;;;;;6.70;2.60;;;;;;;;;;5112254;27;20031;-73
2023/03/09 07:07:32;;;;;;;4.72;2.92;;;;;;;;;;5129047;27;20034;-74
2023/03/09 07:09:57;;;;;;;7.53;2.83;;;;;;;;;;5130752;27;20041;-73
2023/03/09 07:12:23;;;;;;;3.83;2.50;;;;;;;10.67;nan;99271.59;5129634;27;20041;-74
2023/03/09 07:14:48;;;;;;;3.90;2.60;;;;;;;;;;5128433;27;20465;-74
2023/03/09 07:17:14;;;;;;;5.43;2.57;;;;;;;;;;5130116;27;20095;-73
2023/03/09 07:19:40;;;;;;;6.72;2.60;;;;;;;;;;5111976;27;20357;-73
2023/03/09 07:22:06;;;;;;;5.97;2.40;;;;;;;;;;5129697;27;20031;-73
2023/03/09 07:24:33;;;;;;;6.43;2.65;;;;;;;;;;5130141;27;20434;-73
2023/03/09 07:26:58;;;;;;;6.10;2.17;;;;;;;;;;5128333;27;20023;-73
2023/03/09 07:29:24;;;;;;;4.73;2.80;;;;;;;;;;5129540;27;20023;-73
2023/03/09 07:31:49;;;;;;;3.90;2.30;;;;;;;;;;5129758;27;20031;-73
2023/03/09 07:34:14;;;;;;;5.17;2.40;;;;;;;;;;5129484;27;20263;-73
2023/03/09 07:36:39;;;;;;;4.20;2.50;;;;;;;;;;5114825;27;20024;-73
2023/03/09 07:39:05;;;;;;;5.90;2.43;;;;;;;;;;5126347;27;20035;-73
2023/03/09 07:41:30;;;;;;;4.53;2.42;;;;;;;;;;5127100;27;20485;-72
2023/03/09 07:43:57;;;;;;;7.15;2.60;;;;;;;;;;5110910;27;20031;-72
2023/03/09 07:46:22;;;;;;;5.22;2.10;;;;;;;;;;5111725;27;20090;-73
2023/03/09 07:48:47;;;;;;;3.70;2.40;;;;;;;;;;5130031;27;20023;-72
2023/03/09 07:51:13;;;;;;;2.43;2.03;;;;;;;;;;5112532;27;20042;-73
2023/03/09 07:53:39;;;;;;;4.60;2.92;;;;;;;;;;5128843;27;20362;-72
2023/03/09 07:56:05;;;;;;;3.88;2.28;;;;;;;;;;5129735;27;20047;-73
2023/03/09 07:58:31;;;;;;;4.55;2.40;;;;;;;;;;5111349;27;20027;-72
2023/03/09 08:00:57;;;;;;;5.70;2.85;;;;;;;;;;5127646;27;20023;-73
2023/03/09 08:03:23;;;;;;;4.28;2.50;;;;;;;11.39;nan;99274.63;5128307;27;20023;-73
2023/03/09 08:05:49;;;;;;;5.93;2.80;;;;;;;;;;5128919;27;20480;-72
2023/03/09 08:08:15;;;;;;;6.88;2.92;;;;;;;;;;5128946;27;20026;-72
2023/03/09 08:10:45;;;;;;;5.15;2.50;;;;;;;;;;5128806;27;20680;-72
2023/03/09 08:13:11;;;;;;;4.25;2.65;;;;;;;;;;5127186;27;20083;-72
2023/03/09 08:15:36;;;;;;;7.13;2.40;;;;;;;;;;5128987;27;20572;-73
2023/03/09 08:18:01;;;;;;;4.32;2.35;;;;;;;;;;5111402;27;20275;-72
2023/03/09 08:20:27;;;;;;;6.70;2.60;;;;;;;;;;5120154;27;20444;-73
2023/03/09 08:22:52;;;;;;;5.20;3.07;;;;;;;;;;5110677;27;20539;-73
2023/03/09 08:25:17;;;;;;;6.63;2.77;;;;;;;;;;5113341;27;20026;-73
2023/03/09 08:27:46;;;;;;;5.53;2.80;;;;;;;;;;5128975;27;20271;-73
2023/03/09 08:30:12;;;;;;;8.80;3.10;;;;;;;;;;5129139;27;20894;-72
2023/03/09 08:32:38;;;;;;;4.65;2.83;;;;;;;;;;5109332;27;20129;-72
2023/03/09 08:35:03;;;;;;;7.22;2.90;;;;;;;;;;5127418;27;20027;-72
2023/03/09 08:37:28;;;;;;;6.55;2.70;;;;;;;;;;5128857;27;20389;-72
2023/03/09 08:39:54;;;;;;;4.67;2.63;;;;;;;;;;5128740;27;20624;-72
2023/03/09 08:42:19;;;;;;;8.10;3.00;;;;;;;;;;5126824;27;20045;-72
2023/03/09 08:44:44;;;;;;;4.30;2.75;;;;;;;;;;5109789;27;20031;-72
2023/03/09 08:47:10;;;;;;;6.18;2.40;;;;;;;;;;5128365;27;20027;-72
2023/03/09 08:49:37;;;;;;;5.72;2.42;;;;;;;;;;5126750;27;20031;-72
2023/03/09 08:52:02;;;;;;;6.90;2.88;;;;;;;;;;5127001;27;20811;-72
2023/03/09 08:54:28;;;;;;;3.95;2.55;;;;;;;;;;5109482;27;20046;-73
2023/03/09 08:56:53;;;;;;;5.50;2.67;;;;;;;;;;5108969;27;20027;-72
2023/03/09 08:59:18;;;;;;;6.57;2.77;;;;;;;;;;5110007;27;20825;-72
2023/03/09 09:01:43;;;;;;;6.73;2.57;;;;;;;;;;5127746;27;20031;-72
2023/03/09 09:04:09;;;;;;;4.13;2.30;;;;;;;;;;5127674;27;20290;-72
2023/03/09 09:06:34;;;;;;;4.13;2.50;;;;;;;;;;5110628;27;20039;-72
2023/03/09 09:08:59;;;;;;;4.43;2.42;;;;;;;;;;5108207;27;20499;-72
2023/03/09 09:11:25;;;;;;;4.03;2.80;;;;;;;;;;5128828;27;20389;-75
2023/03/09 09:13:51;;;;;;;4.00;2.47;;;;;;;;;;5128104;27;20111;-75
2023/03/09 09:16:17;;;;;;;4.78;2.42;;;;;;;;;;5126456;27;20039;-75
2023/03/09 09:18:42;;;;;;;3.80;2.40;;;;;;;;;;5128008;27;20027;-72
2023/03/09 09:21:08;;;;;;;4.77;2.87;;;;;;;;;;5108412;27;20042;-72
2023/03/09 09:23:34;;;;;;;5.93;2.40;;;;;;;;;;5128299;27;20350;-72
2023/03/09 09:26:00;;;;;;;7.05;2.72;;;;;;;;;;5126474;27;20015;-71
2023/03/09 09:28:25;;;;;;;5.27;2.60;;;;;;;;;;5127259;27;20035;-73
2023/03/09 09:30:58;;;;;;;4.77;2.53;;;;;;;;;;5108526;27;20685;-73
2023/03/09 09:33:24;;;;;;;4.60;2.67;;;;;;;;;;5126732;27;20034;-73
2023/03/09 09:35:55;;;;;;;5.22;2.88;;;;;;;;;;5125693;27;20027;-72
2023/03/09 09:38:20;;;;;;;6.18;3.05;;;;;;;;;;5126100;27;20067;-73
2023/03/09 09:40:47;;;;;;;10.38;2.80;;;;;;;;;;5107800;27;20090;-73
2023/03/09 09:43:12;;;;;;;6.40;3.50;;;;;;;;;;5126330;27;20035;-73
2023/03/09 09:45:43;;;;;;;7.53;3.65;;;;;;;;;;5126570;27;20027;-74
2023/03/09 09:48:12;;;;;;;8.75;2.80;;;;;;;;;;5108355;27;20015;-74
2023/03/09 09:50:47;;;;;;;6.50;2.72;;;;;;;;;;5126600;27;20113;-74
2023/03/09 09:53:21;;;;;;;5.32;2.88;;;;;;;;;;5127207;27;20510;-74
2023/03/09 09:55:48;;;;;;;4.50;2.75;;;;;;;;;;5127081;27;20548;-73
2023/03/09 09:58:23;;;;;;;6.30;2.50;;;;;;;;;;5125914;27;20409;-74
2023/03/09 10:00:52;;;;;;;9.00;2.78;;;;;;;;;;5126820;27;20608;-73
2023/03/09 10:03:23;;;;;;;7.50;2.70;;;;;;;;;;5125729;27;20019;-74
2023/03/09 10:05:50;;;;;;;3.97;2.50;;;;;;;;;;5124575;27;20271;-73
2023/03/09 10:08:25;;;;;;;7.88;3.00;;;;;;;;;;5107918;27;20023;-73
2023/03/09 10:10:50;;;;;;;7.63;3.05;;;;;;;;;;5099424;27;20164;-73
2023/03/09 10:13:20;;;;;;;9.05;3.05;;;;;;;;;;5125907;27;20528;-73
2023/03/09 10:15:46;;;;;;;5.93;3.35;;;;;;;;;;5127220;27;20072;-73
2023/03/09 10:18:14;;;;;;;5.07;3.10;;;;;;;;;;5127276;27;20031;-74
2023/03/09 10:20:42;;;;;;;6.35;2.80;;;;;;;;;;5127206;27;20052;-73
2023/03/09 10:23:26;;;;;;;6.72;3.38;;;;;;;;;;5126018;27;20480;-74
2023/03/09 10:25:55;;;;;;;7.15;3.35;;;;;;;;;;5117482;27;20031;-73
2023/03/09 10:28:23;;;;;;;5.05;3.20;;;;;;;;;;5100206;28;20493;-76
2023/03/09 10:31:02;;;;;;;6.40;2.97;;;;;;;;;;5124058;27;20023;-76
2023/03/09 10:33:37;;;;;;;9.77;3.38;;;;;;;;;;5121214;28;20092;-76
2023/03/09 10:36:05;;;;;;;5.75;3.05;;;;;;;;;;5123764;27;20103;-75
2023/03/09 10:38:32;;;;;;;7.88;2.90;;;;;;;;;;5126698;28;20038;-75
2023/03/09 10:40:57;;;;;;;5.47;3.10;;;;;;;;;;5125115;28;20027;-72
2023/03/09 10:43:22;;;;;;;5.88;2.70;;;;;;;;;;5121097;28;20437;-70
2023/03/09 10:45:48;;;;;;;5.57;2.70;;;;;;;;;;5102785;28;20084;-70
2023/03/09 10:48:19;;;;;;;6.10;2.85;;;;;;;;;;5108379;28;20042;-70
2023/03/09 10:51:01;;;;;;;8.13;3.15;;;;;;;;;;5107019;28;20047;-68
2023/03/09 10:53:28;;;;;;;4.05;2.83;;;;;;;;;;5125569;28;20023;-69
2023/03/09 10:55:56;;;;;;;7.10;3.08;;;;;;;;;;5124734;28;20051;-68
2023/03/09 10:58:22;;;;;;;7.45;3.58;;;;;;;;;;5124419;28;20019;-68
2023/03/09 11:00:58;;;;;;;4.57;3.20;;;;;;;;;;5104828;28;20102;-68
2023/03/09 11:03:35;;;;;;;6.80;3.38;;;;;;;;;;5126796;28;20088;-68
2023/03/09 11:06:23;;;;;;;6.93;3.90;;;;;;;;;;5121690;28;20154;-67
2023/03/09 11:08:56;;;;;;;6.03;3.20;;;;;;;;;;5110255;28;20095;-73
2023/03/09 11:11:24;;;;;;;9.30;3.70;;;;;;;;;;5107741;28;20110;-72
2023/03/09 11:13:50;;;;;;;8.15;3.22;;;;;;;;;;5123581;28;20353;-70
2023/03/09 11:16:36;;;;;;;6.88;4.03;;;;;;;;;;5108213;28;20054;-71
2023/03/09 11:19:16;;;;;;;7.95;4.22;;;;;;;;;;5125006;28;20079;-71
2023/03/09 11:21:51;;;;;;;7.15;4.07;;;;;;;;;;5107927;28;20027;-71
2023/03/09 11:24:17;;;;;;;7.07;4.18;;;;;;;;;;5105974;28;20050;-74
2023/03/09 11:26:46;;;;;;;7.80;4.00;;;;;;;;;;5126536;28;20126;-72
2023/03/09 11:29:11;;;;;;;10.33;3.93;;;;;;;;;;5106644;28;20032;-71
2023/03/09 11:31:37;;;;;;;8.67;4.30;;;;;;;;;;5126006;28;20030;-71
2023/03/09 11:34:06;;;;;;;8.07;4.05;;;;;;;;;;5124746;27;20369;-71
2023/03/09 11:36:52;;;;;;;10.48;4.47;;;;;;;;;;5127730;27;20985;-72
2023/03/09 11:39:31;;;;;;;10.23;4.28;;;;;;;;;;5058568;27;20058;-72
2023/03/09 11:41:57;;;;;;;8.13;4.63;;;;;;;;;;5111221;27;20023;-71
2023/03/09 11:44:25;;;;;;;9.50;4.15;;;;;;;;;;5129054;27;20031;-72
2023/03/09 11:46:52;;;;;;;5.80;4.32;;;;;;;;;;5128279;27;20026;-71
2023/03/09 11:49:20;;;;;;;9.20;4.88;;;;;;;;;;5128637;27;20027;-72
2023/03/09 11:51:48;;;;;;;7.47;4.85;;;;;;;;;;5128396;27;20027;-72
2023/03/09 11:54:32;;;;;;;11.05;4.78;;;;;;;;;;5112365;27;20030;-72
2023/03/09 11:56:59;;;;;;;14.75;5.40;;;;;;;;;;5129498;27;20019;-71
2023/03/09 11:59:24;;;;;;;7.50;5.07;;;;;;;;;;5128004;27;20062;-72
2023/03/09 12:02:02;;;;;;;9.33;4.63;;;;;;;;;;5111787;27;20062;-71
2023/03/09 12:04:27;;;;;;;9.20;5.28;;;;;;;;;;5129314;27;20796;-71
2023/03/09 12:06:56;;;;;;;10.27;6.13;;;;;;;;;;5113634;27;20027;-71
2023/03/09 12:09:27;;;;;;;7.83;5.23;;;;;;;;;;5129291;27;20026;-71
2023/03/09 12:12:11;;;;;;;10.95;5.85;;;;;;;;;;5112697;27;20752;-71
2023/03/09 12:14:40;;;;;;;15.98;6.07;;;;;;;;;;5129595;27;20527;-72
2023/03/09 12:17:06;;;;;;;;;;;;;;;;;;5128469;27;20040;-71
2023/03/09 12:19:32;;;;;;;9.07;5.60;;;;;;;;;;5129091;27;19925;-71
2023/03/09 12:22:15;;;;;;;9.07;5.18;;;;;;;;;;5112070;27;20107;-72
2023/03/09 12:24:41;;;;;;;13.68;5.97;;;;;;;;;;5129324;27;20057;-68
2023/03/09 12:27:10;;;;;;;9.77;5.65;;;;;;;;;;5129162;27;20429;-68
2023/03/09 12:29:46;;;;;;;14.50;6.13;;;;;;;;;;5109695;27;20045;-68
2023/03/09 12:32:28;;;;;;;12.63;6.25;;;;;;;;;;5128695;27;20088;-67
2023/03/09 12:34:54;;;;;;;11.45;6.47;;;;;;;;;;5108534;27;20740;-68
2023/03/09 12:37:38;;;;;;;9.05;6.10;;;;;;;;;;5129383;27;20113;-68
2023/03/09 12:40:15;;;;;;;8.30;5.78;;;;;;;;;;5128963;27;20038;-68
2023/03/09 12:42:41;;;;;;;10.98;5.88;;;;;;;;;;5108551;27;20546;-68
2023/03/09 12:45:13;;;;;;;13.50;5.85;;;;;;;;;;5109232;27;20027;-68
2023/03/09 12:47:44;;;;;;;13.43;6.70;;;;;;;;;;5124453;27;20050;-68
2023/03/09 12:50:28;;;;;;;13.05;6.32;;;;;;;;;;5122352;27;20376;-68
2023/03/09 12:53:14;;;;;;;17.67;7.85;;;;;;;;;;5124360;27;20071;-72
2023/03/09 12:55:39;;;;;;;13.60;6.78;;;;;;;;;;5126609;27;20023;-71
2023/03/09 12:58:22;;;;;;;10.27;6.23;;;;;;;;;;5122421;27;20031;-72
2023/03/09 13:00:48;;;;;;;12.30;6.30;;;;;;;;;;5107948;27;20023;-69
2023/03/09 13:03:14;;;;;;;10.50;6.57;;;;;;;;;;5123914;27;20500;-68
2023/03/09 13:05:41;;;;;;;10.82;6.30;;;;;;;;;;5125971;27;20035;-68
2023/03/09 13:08:39;;;;;;;12.10;6.10;;;;;;;;;;5126986;27;20022;-68
2023/03/09 13:11:20;;;;;;;12.60;6.10;;;;;;;;;;5076456;27;20039;-69
2023/03/09 13:13:45;;;;;;;10.63;6.10;;;;;;;;;;5106586;27;20156;-68
2023/03/09 13:16:36;;;;;;;10.98;5.88;;;;;;;;;;5124016;27;20063;-68
2023/03/09 13:19:17;;;;;;;12.48;6.85;;;;;;;;;;5126174;27;20039;-69
2023/03/09 13:22:01;;;;;;;13.02;6.93;;;;;;;;;;5107425;27;20061;-68
2023/03/09 13:24:37;;;;;;;13.05;7.28;;;;;;;;;;5126818;27;20429;-68
2023/03/09 13:27:11;;;;;;;13.20;6.72;;;;;;;;;;5125288;27;20461;-68
2023/03/09 13:29:43;;;;;;;11.95;7.28;;;;;;;;;;5122110;27;20023;-68
2023/03/09 13:32:18;;;;;;;12.18;6.53;;;;;;;;;;5124422;27;20019;-68
2023/03/09 13:34:44;;;;;;;14.30;7.80;;;;;;;;;;5104804;27;20035;-67
2023/03/09 13:37:15;;;;;;;8.98;6.68;;;;;;;;;;5124157;27;20825;-67
2023/03/09 13:39:55;;;;;;;13.05;7.50;;;;;;;;;;5124192;27;20027;-66
2023/03/09 13:42:20;;;;;;;;;;;;;;;;;;5108770;27;20020;-66
2023/03/09 13:44:46;;;;;;;13.52;7.18;;;;;;;;;;5123868;27;19918;-67
2023/03/09 13:47:20;;;;;;;13.73;6.97;;;;;;;;;;5123415;27;20031;-66
2023/03/09 13:49:45;;;;;;;14.07;7.03;;;;;;;;;;5122930;27;20034;-67
2023/03/09 13:52:16;;;;;;;15.15;7.15;;;;;;;;;;5105680;27;20027;-66
2023/03/09 13:54:57;;;;;;;12.18;7.10;;;;;;;;;;5124851;27;20392;-66
2023/03/09 13:57:24;;;;;;;14.18;7.00;;;;;;;;;;5122152;27;20029;-67
2023/03/09 13:59:54;;;;;;;10.95;6.75;;;;;;;;;;5126380;27;20031;-66
2023/03/09 14:02:20;;;;;;;8.60;6.10;;;;;;;;;;5127188;27;20042;-66
2023/03/09 14:04:46;;;;;;;10.80;5.85;;;;;;;;;;5106207;27;20458;-67
2023/03/09 14:07:16;;;;;;;8.98;6.35;;;;;;;;;;5125083;27;20117;-68
2023/03/09 14:09:42;;;;;;;9.32;6.47;;;;;;;;;;5107380;27;20103;-68
2023/03/09 14:12:15;;;;;;;14.55;7.20;;;;;;;;;;5123280;27;20414;-71
2023/03/09 14:14:44;;;;;;;12.60;6.68;;;;;;;;;;5115593;27;20501;-71
2023/03/09 14:17:16;;;;;;;12.20;7.47;;;;;;;;;;5125107;27;20058;-72
2023/03/09 14:19:42;;;;;;;13.85;8.30;;;;;;;;;;5126612;27;20058;-72
2023/03/09 14:22:16;;;;;;;15.13;8.45;;;;;;;;;;5123691;27;20477;-72
2023/03/09 14:24:41;;;;;;;15.27;8.82;;;;;;;;;;5126400;27;20031;-71
2023/03/09 14:27:11;;;;;;;11.27;7.57;;;;;;;;;;5126191;27;20023;-71
2023/03/09 14:29:36;;;;;;;13.98;8.50;;;;;;;;;;5127068;27;20031;-72
2023/03/09 14:32:17;;;;;;;12.00;7.47;;;;;;;;;;5127319;28;20023;-71
2023/03/09 14:34:42;;;;;;;12.98;6.80;;;;;;;;;;5095689;28;21129;-71
2023/03/09 14:37:21;;;;;;;12.07;6.70;;;;;;;;;;5127453;28;20019;-72
2023/03/09 14:39:46;;;;;;;10.10;6.00;;;;;;;;;;5126501;28;20491;-71